Crystal Symphony — C6MY5 — position and weather

sailwx.info

Track history (hours):
 
Tides and Currents Weather Stations Pressure Air Temp Water Temp Dewpoint Dewpoint Depression Visibility Wind Speed Wind Dir Waves Ship Positions

Crystal Symphony

Operator: Crystal Cruises

Last reported at 2018-Oct-23 23:48 UTC. Time now 2018-Oct-24 06:10 UTC.
Position N 42°15' W 070°01'.

Length 238 m; draft 8 m.

Type: Ship. MMSI: 309168000.

Date/timePositionNaut miles runAvg speedWind from/ knotsBaromVisibWave heightAir tempDewpointWater temp
2018-Oct-23 23:48N 42°15' W 070°01'518.1
2018-Oct-23 23:30N 42°18' W 070°07'919.3
2018-Oct-23 23:03N 42°18' W 070°19'120.2
2018-Oct-23 23:00N 42°19' W 070°20'1020.0
2018-Oct-23 22:30N 42°19' W 070°34'919.0
2018-Oct-23 22:03N 42°21' W 070°45'119.3
2018-Oct-23 22:00N 42°21' W 070°46'713.5
2018-Oct-23 21:30N 42°22' W 070°55'510.2
2018-Oct-23 21:03N 42°21' W 071°01'0 6.2
2018-Oct-23 21:00N 42°21' W 071°01'0 0.0
2018-Oct-23 12:35N 42°21' W 071°02'0 0.0
2018-Oct-23 11:20N 42°21' W 071°02'0 0.0
2018-Oct-23 11:02N 42°21' W 071°02'0 0.0
2018-Oct-23 10:57N 42°21' W 071°02'1 1.6
2018-Oct-23 10:30N 42°21' W 071°01'2 4.9
2018-Oct-23 10:03N 42°20' W 070°58'113.8
2018-Oct-23 10:00N 42°20' W 070°57'612.9
2018-Oct-23 09:30N 42°24' W 070°50'511.4
2018-Oct-23 09:03N 42°27' W 070°45'111.4
2018-Oct-23 09:00N 42°28' W 070°44'611.3
2018-Oct-23 08:30N 42°31' W 070°38'511.5
2018-Oct-23 08:03N 42°34' W 070°33'111.3
2018-Oct-23 08:00N 42°35' W 070°32'611.9
2018-Oct-23 07:30N 42°39' W 070°27'612.2
2018-Oct-23 07:03N 42°43' W 070°22'112.2
2018-Oct-23 07:00N 42°44' W 070°21'1012.5
2018-Oct-23 06:12N 42°52' W 070°13'512.7
2018-Oct-23 05:50N 42°55' W 070°09'  
2018-Oct-20 16:00N 46°06' W 059°18'269 5.7 180 / 401012.5 12.012.011.0
2018-Oct-18 17:00N 49°12' W 064°06'10220.4 320 / 37999.510.8 4.0 4.0 8.0
2018-Oct-18 12:00N 49°12' W 066°42'   300 / 401003.510.8 4.0 4.0 8.0
Track history (hours):
 
Tides and Currents Weather Stations Pressure Air Temp Water Temp Dewpoint Dewpoint Depression Visibility Wind Speed Wind Dir Waves Ship Positions

Crystal Symphony

Operator: Crystal Cruises

Last reported at 2018-Oct-23 23:48 UTC. Time now 2018-Oct-24 06:10 UTC.
Position N 42°15' W 070°01'.

Length 238 m; draft 8 m.

Type: Ship. MMSI: 309168000.

Date/timePositionNaut miles runAvg speedWind from/ knotsBaromVisibWave heightAir tempDewpointWater temp
2018-Oct-23 23:48N 42°15' W 070°01'518.1
2018-Oct-23 23:30N 42°18' W 070°07'919.3
2018-Oct-23 23:03N 42°18' W 070°19'120.2
2018-Oct-23 23:00N 42°19' W 070°20'1020.0
2018-Oct-23 22:30N 42°19' W 070°34'919.0
2018-Oct-23 22:03N 42°21' W 070°45'119.3
2018-Oct-23 22:00N 42°21' W 070°46'713.5
2018-Oct-23 21:30N 42°22' W 070°55'510.2
2018-Oct-23 21:03N 42°21' W 071°01'0 6.2
2018-Oct-23 21:00N 42°21' W 071°01'0 0.0
2018-Oct-23 12:35N 42°21' W 071°02'0 0.0
2018-Oct-23 11:20N 42°21' W 071°02'0 0.0
2018-Oct-23 11:02N 42°21' W 071°02'0 0.0
2018-Oct-23 10:57N 42°21' W 071°02'1 1.6
2018-Oct-23 10:30N 42°21' W 071°01'2 4.9
2018-Oct-23 10:03N 42°20' W 070°58'113.8
2018-Oct-23 10:00N 42°20' W 070°57'612.9
2018-Oct-23 09:30N 42°24' W 070°50'511.4
2018-Oct-23 09:03N 42°27' W 070°45'111.4
2018-Oct-23 09:00N 42°28' W 070°44'611.3
2018-Oct-23 08:30N 42°31' W 070°38'511.5
2018-Oct-23 08:03N 42°34' W 070°33'111.3
2018-Oct-23 08:00N 42°35' W 070°32'611.9
2018-Oct-23 07:30N 42°39' W 070°27'612.2
2018-Oct-23 07:03N 42°43' W 070°22'112.2
2018-Oct-23 07:00N 42°44' W 070°21'1012.5
2018-Oct-23 06:12N 42°52' W 070°13'512.7
2018-Oct-23 05:50N 42°55' W 070°09'  
2018-Oct-20 16:00N 46°06' W 059°18'269 5.7 180 / 401012.5 12.012.011.0
2018-Oct-18 17:00N 49°12' W 064°06'10220.4 320 / 37999.510.8 4.0 4.0 8.0
2018-Oct-18 12:00N 49°12' W 066°42'   300 / 401003.510.8 4.0 4.0 8.0

Dump ship's entire track history